Southwestern Research Station, Arizona Weather observations

Data are for 10 minute period ending at time listed.
 Day   Time   Solar   Ave.   Ave.  Ave.  Vector  Max.   Baro.   Total    
  of    of     Rad.   Air    Rel.  Wind   Wind   Wind  Press.  Precip.   
Year   Day            Temp.  Hum.  Speed  Dir.   Gust                    
2026   (PST)  Kw/m2    F      %     mph   deg.    mph    mb.     in.     
-------------------------------------------------------------------------
 128   16:40   0.45   81.5    12    1.8   337     7.5   831.9    0.00 
 128   16:50   0.42   81.4    12    1.6   291     7.4   831.8    0.00 
 128   17:00   0.38   80.3    12    2.7   307    10.0   831.8    0.00 
 128   17:10   0.35   79.3    12    1.8   292     9.3   831.9    0.00 
 128   17:20   0.27   78.5    13    2.2   272     6.5   831.9    0.00 
 128   17:30   0.04   78.1    13    1.7   275     7.9   831.9    0.00 
 128   17:40   0.03   77.6    13    1.0   278     6.1   831.9    0.00 
 128   17:50   0.03   76.9    14    1.8   311     6.9   831.9    0.00 
 128   18:00   0.03   76.5    14    1.2   301     5.6   831.9    0.00 
 128   18:10   0.03   75.7    14    0.8   284     3.7   832.0    0.00 
 128   18:20   0.02   74.2    16    0.5   288     3.6   832.0    0.00 
 128   18:30   0.01   72.1    19    0.2   252     1.8   832.0    0.00 
 128   18:40   0.01   70.1    21    0.1   284     1.6   832.1    0.00 
 128   18:50   0.01   68.1    25    0.0   238     0.8   832.1    0.00 
 128   19:00   0.01   66.1    27    0.3   268     1.8   832.2    0.00 
 128   19:10   0.01   64.5    29    0.2   355     1.6   832.3    0.00 
 128   19:20   0.00   63.0    31    0.0     1     0.5   832.3    0.00 
 128   19:30   0.00   61.7    32    0.1   271     1.5   832.4    0.00 
 128   19:40   0.00   61.0    33    0.2    29     2.5   832.5    0.00 
 128   19:50   0.00   60.8    33    0.5   342     4.1   832.6    0.00 
 128   20:00   0.00   60.5    34    0.6    35     4.0   832.7    0.00 
 128   20:10   0.00   61.6    31    0.8    12     4.7   832.8    0.00 
 128   20:20   0.00   61.5    30    0.8   360     2.9   833.0    0.00 
 128   20:30   0.00   61.7    30    0.3    22     2.5   833.1    0.00 
 128   20:40   0.00   61.4    30    0.8   113     3.9   833.2    0.00 
 128   20:50   0.00   63.5    26    1.0   284     5.7   833.3    0.00 
 128   21:00   0.00   62.9    30    0.4    59     2.2   833.5    0.00 
 128   21:10   0.00   61.6    30    0.1   170     1.5   833.6    0.00 
 128   21:20   0.00   60.6    30    0.6    54     2.1   833.6    0.00 
 128   21:30   0.00   60.1    34    0.3   258     1.3   833.7    0.00 
 128   21:40   0.00   58.7    35    0.9   297     2.7   833.7    0.00 
 128   21:50   0.00   58.2    36    0.6   297     4.7   833.7    0.00 
 128   22:00   0.00   57.2    37    0.6   272     2.8   833.7    0.00 
 128   22:10   0.00   56.4    38    0.2   330     1.9   833.7    0.00 
 128   22:20   0.00   55.9    40    1.0   301     4.2   833.7    0.00 
 128   22:30   0.00   56.3    39    0.1   354     1.9   833.6    0.00 
 128   22:40   0.00   55.5    40    0.5   277     2.0   833.6    0.00 
 128   22:50   0.00   54.8    41    0.9   309     3.8   833.7    0.00 
 128   23:00   0.00   55.1    40    0.6   310     3.6   833.7    0.00 
 128   23:10   0.00   55.7    40    0.3   360     1.9   833.7    0.00 
 128   23:20   0.00   54.8    41    0.5   265     3.3   833.7    0.00 
 128   23:30   0.00   53.8    43    0.1   249     1.5   833.7    0.00 
 128   23:40   0.00   52.9    44    0.2   271     1.8   833.6    0.00 
 128   23:50   0.00   52.5    46    0.3   262     2.0   833.6    0.00 
 129    0:00   0.00   52.4    47    0.3   262     2.0   833.5    0.00 
 129    0:10   0.00   52.2    47    0.2   283     2.5   833.5    0.00 
 129    0:20   0.00   52.8    45    0.5   302     2.5   833.4    0.00 
 129    0:30   0.00   52.8    46    0.0   261     1.8   833.3    0.00 
 129    0:40   0.00   51.7    47    0.9   261     3.9   833.3    0.00 
 129    0:50   0.00   51.4    48    0.9   257     4.7   833.2    0.00 
 129    1:00   0.00   51.9    47    0.6   263     3.9   833.1    0.00 
 129    1:10   0.00   51.2    48    0.4   280     2.9   833.1    0.00 
 129    1:20   0.00   50.6    50    0.4   261     3.6   833.1    0.00 
 129    1:30   0.00   49.9    51    0.3   246     2.1   833.0    0.00 
 129    1:40   0.00   49.7    52    0.7   278     4.5   833.0    0.00 
 129    1:50   0.00   49.3    53    0.3   265     3.6   833.0    0.00 
 129    2:00   0.00   48.9    54    0.5   261     2.6   833.0    0.00 
 129    2:10   0.00   48.4    54    0.6   262     3.0   833.0    0.00 
 129    2:20   0.00   48.3    55    0.3   265     2.0   833.0    0.00 
 129    2:30   0.00   48.8    54    0.5   259     3.7   833.0    0.00 
 129    2:40   0.00   48.4    55    0.5   280     3.9   833.0    0.00 
 129    2:50   0.00   48.5    55    1.0   283     3.4   833.0    0.00 
 129    3:00   0.00   48.5    55    0.5   266     4.3   833.0    0.00 
 129    3:10   0.00   48.2    56    0.7   250     4.2   833.0    0.00 
 129    3:20   0.00   48.0    56    0.9   271     5.5   833.1    0.00 
 129    3:30   0.00   48.2    56    0.3   264     1.9   833.1    0.00 
 129    3:40   0.00   47.8    57    0.4   268     1.9   833.1    0.00 
 129    3:50   0.00   47.8    58    0.6   287     2.9   833.1    0.00 
 129    4:00   0.00   47.8    57    0.8   258     3.6   833.1    0.00 
 129    4:10   0.00   47.4    59    0.1   238     1.5   833.1    0.00 
 129    4:20   0.00   47.0    60    0.6   269     3.9   833.2    0.00 
 129    4:30   0.00   47.1    60    0.3   268     3.0   833.1    0.00 
 129    4:40   0.00   46.7    61    0.1   268     1.8   833.2    0.00 
 129    4:50   0.00   46.6    62    0.6   274     3.7   833.2    0.00 
 129    5:00   0.00   46.2    62    0.3   264     2.0   833.3    0.00 
 129    5:10   0.00   46.4    62    0.0     0     0.0   833.4    0.00 
 129    5:20   0.01   47.2    59    0.5   297     3.3   833.5    0.00 
 129    5:30   0.01   47.5    60    0.0   288     0.7   833.7    0.00 
 129    5:40   0.01   46.4    63    0.0     0     0.0   833.8    0.00 
 129    5:50   0.01   46.2    64    0.0   273     0.5   833.8    0.00 
 129    6:00   0.01   46.3    64    0.0     0     0.0   833.9    0.00 
 129    6:10   0.02   46.7    64    0.3   352     2.3   834.0    0.00 
 129    6:20   0.04   47.0    64    0.0     1     0.1   834.0    0.00 
 129    6:30   0.09   47.7    65    0.1   304     1.8   834.1    0.00 
 129    6:40   0.19   49.5    63    0.2    18     2.2   834.1    0.00 
 129    6:50   0.22   51.2    60    0.3    23     2.1   834.1    0.00 
 129    7:00   0.26   54.0    54    0.1    25     1.6   834.2    0.00 
 129    7:10   0.29   58.0    49    0.0   146     0.5   834.2    0.00 
 129    7:20   0.33   62.9    40    0.1    87     1.4   834.2    0.00 
 129    7:30   0.37   66.2    39    0.1   102     0.8   834.2    0.00 
 129    7:40   0.40   68.7    34    0.2    89     1.6   834.4    0.00 
 129    7:50   0.44   71.9    25    0.1   117     1.0   834.6    0.00 
 129    8:00   0.47   73.9    25    0.6   107     2.5   834.7    0.00 
 129    8:10   0.51   75.3    24    0.8   141     3.0   834.7    0.00 
 129    8:20   0.54   77.5    19    1.9    79     5.0   834.7    0.00 
 129    8:30   0.57   78.4    16    2.0    72     7.5   834.6    0.00 
 129    8:40   0.60   79.1    15    1.7    42     6.4   834.6    0.00 
 129    8:50   0.63   80.0    15    2.1    70     7.8   834.6    0.00 
 129    9:00   0.66   80.8    14    1.9    29     6.6   834.6    0.00 
 129    9:10   0.69   80.7    14    2.4    60     5.9   834.6    0.00 
 129    9:20   0.72   81.2    14    1.6    34     7.6   834.6    0.00 
 129    9:30   0.74   81.4    14    1.7    55     5.4   834.6    0.00 
 129    9:40   0.77   81.8    14    2.2    73     6.3   834.6    0.00 
 129    9:50   0.73   81.9    14    2.0    59     6.0   834.6    0.00 
 129   10:00   0.81   82.2    15    3.8   107     8.5   834.5    0.00 
 129   10:10   0.83   82.2    14    3.3   102     7.5   834.5    0.00 
 129   10:20   0.85   83.0    14    2.2    92     5.6   834.5    0.00 
 129   10:30   0.86   82.8    14    2.4   132     7.8   834.4    0.00 
 129   10:40   0.88   83.6    14    3.2    94    10.7   834.3    0.00 
 129   10:50   0.89   84.5    13    4.1    99     9.9   834.2    0.00 
 129   11:00   0.90   83.8    13    4.1   111    10.0   834.2    0.00 
 129   11:10   0.92   84.3    13    2.4    67     7.9   834.2    0.00 
 129   11:20   0.93   84.9    13    2.0    95     5.8   834.1    0.00 
 129   11:30   0.95   85.0    13    5.7   119    14.1   833.9    0.00 
 129   11:40   0.99   85.5    11    5.2    52    11.0   833.9    0.00 
 129   11:50   0.98   85.9    11    2.4   329     8.3   833.9    0.00 
 129   12:00   1.00   85.5    12    2.7    94     6.9   833.9    0.00 
 129   12:10   1.01   85.7    13    3.4   103     8.3   833.7    0.00 
 129   12:20   1.01   85.4    13    3.0   114     8.6   833.6    0.00 
 129   12:30   0.74   85.0    12    3.9    87    12.6   833.5    0.00 
 129   12:40   0.58   84.0    12    2.5   276     5.6   833.5    0.00 
 129   12:50   1.01   84.9    12    1.8   104     4.9   833.5    0.00 
 129   13:00   0.94   87.0    12    2.8    78     9.3   833.4    0.00 
 129   13:10   0.24   85.7    12    1.8    58     5.7   833.2    0.00 
 129   13:20   0.96   85.8    12    2.3    51     5.3   833.2    0.00 
 129   13:30   0.97   86.9    12    2.8   287    11.5   833.0    0.00 
 129   13:40   0.94   87.4    12    2.2   300     7.7   832.8    0.00 
 129   13:50   0.95   89.2    11    2.4   292     8.1   832.6    0.00 
 129   14:00   0.93   87.6    11    2.7   280     8.6   832.5    0.00 
 129   14:10   0.90   87.5    12    2.5   239    10.1   832.4    0.00 
 129   14:20   0.86   87.3    12    3.1   325    10.3   832.3    0.00 
 129   14:30   0.83   87.3    11    3.7   278    14.0   832.2    0.00 
 129   14:40   0.81   87.8    11    2.7   273    11.3   832.2    0.00 
 129   14:50   0.78   86.6    11    3.4   224    12.1   832.1    0.00 
 129   15:00   0.76   86.3    10    3.1   227     8.5   832.0    0.00 
 129   15:10   0.73   86.3    10    2.7   274    12.4   831.9    0.00 
 129   15:20   0.70   86.5    10    3.9   262    12.4   831.8    0.00 
 129   15:30   0.67   86.4    10    3.5   284    10.2   831.9    0.00 
 129   15:40   0.65   85.9    10    3.0   238     9.1   831.8    0.00 
 129   15:50   0.62   85.3    11    3.0   225    12.6   831.7    0.00 
 129   16:00   0.59   85.4    10    2.8   255    10.0   831.7    0.00 
 129   16:10   0.56   85.9    10    2.7   303     9.4   831.6    0.00 
 129   16:20   0.52   85.5    10    2.0   290     5.9   831.6    0.00 
 129   16:30   0.49   84.6    10    2.5   261     7.5   831.6    0.00 

Return to Southwestern Research Station graphs page.


Western Regional Climate Center,wrcc@dri.edu